^^
B2 Weather Station Historical Data
Daily Summary for April 6, 2018 Units:  English    Metric   Both
Daily Weekly Monthly Yearly Custom
  High: Low: Average:
Temperature: 38.0 °F 24.1 °F 33 °F
Dew Point: 33.5 °F 14.8 °F 24 °F
Humidity: 95% 54% 70%
Wind Speed: 23.0mph 0.0mph 10.9mph
Wind Gust: 23.0mph - -
Wind- - WNW
Pressure: 30.14 in 29.89 in -
Precipitation: 0.00 in    
Historical Graphs
 
 
Tabular Data for April 6, 2018
Time Temperature Dew Point Pressure Wind Wind Speed Wind Gust Humidity Rainfall Rate (Hourly) solar
00:03 34.6 °F 33.3 °F 29.95 in Calm     95% 0.00 in 0.0 W/m2
00:08 34.6 °F 33.3 °F 29.94 in SE 4.6 mph 4.6 mph 95% 0.00 in 0.0 W/m2
00:13 34.6 °F 33.3 °F 29.94 in ESE 4.6 mph 4.6 mph 95% 0.00 in 0.0 W/m2
00:18 34.6 °F 33.3 °F 29.94 in Calm     95% 0.00 in 0.0 W/m2
00:23 34.5 °F 33.2 °F 29.93 in Calm     95% 0.00 in 0.0 W/m2
00:28 34.5 °F 33.2 °F 29.93 in Calm     95% 0.00 in 0.0 W/m2
00:33 34.4 °F 33.1 °F 29.93 in Calm     95% 0.00 in 0.0 W/m2
00:38 34.4 °F 33.1 °F 29.93 in Calm     95% 0.00 in 0.0 W/m2
00:43 34.4 °F 33.1 °F 29.92 in Calm     95% 0.00 in 0.0 W/m2
00:48 34.3 °F 33.0 °F 29.92 in Calm     95% 0.00 in 0.0 W/m2
00:53 34.2 °F 32.9 °F 29.92 in Calm     95% 0.00 in 0.0 W/m2
00:58 34.0 °F 32.7 °F 29.92 in Calm     95% 0.00 in 0.0 W/m2
01:03 33.9 °F 32.6 °F 29.92 in Calm     95% 0.00 in 0.0 W/m2
01:08 33.8 °F 32.5 °F 29.91 in Calm     95% 0.00 in 0.0 W/m2
01:13 33.6 °F 32.3 °F 29.91 in Calm     95% 0.00 in 0.0 W/m2
01:18 33.5 °F 32.2 °F 29.91 in Calm     95% 0.00 in 0.0 W/m2
01:23 33.4 °F 32.1 °F 29.91 in Calm     95% 0.00 in 0.0 W/m2
01:28 33.3 °F 32.0 °F 29.91 in Calm     95% 0.00 in 0.0 W/m2
01:33 33.3 °F 32.0 °F 29.90 in Calm     95% 0.00 in 0.0 W/m2
01:38 33.2 °F 31.9 °F 29.90 in Calm     95% 0.00 in 0.0 W/m2
01:43 33.2 °F 31.9 °F 29.90 in Calm     95% 0.00 in 0.0 W/m2
01:48 33.2 °F 31.9 °F 29.89 in Calm     95% 0.00 in 0.0 W/m2
01:53 33.2 °F 31.9 °F 29.89 in Calm     95% 0.00 in 0.0 W/m2
01:58 33.2 °F 31.9 °F 29.89 in Calm     95% 0.00 in 0.0 W/m2
02:04 33.3 °F 32.0 °F 29.89 in Calm     95% 0.00 in 0.0 W/m2
02:07 33.3 °F 32.0 °F 29.89 in Calm     95% 0.00 in 0.0 W/m2
02:09 33.3 °F 32.0 °F 29.89 in Calm     95% 0.00 in 0.0 W/m2
02:14 33.3 °F 32.0 °F 29.89 in Calm     95% 0.00 in 0.0 W/m2
02:35 33.3 °F 32.0 °F 29.89 in Calm     95% 0.00 in 0.0 W/m2
03:11 33.3 °F 32.0 °F 29.89 in Calm     95% 0.00 in 0.0 W/m2
04:37 33.3 °F 32.0 °F 29.89 in Calm     95% 0.00 in 0.0 W/m2
06:13 37.5 °F 33.1 °F 29.91 in WSW 10.0 mph   84% 0.00 in 0.0 W/m2
06:18 37.5 °F 33.1 °F 29.91 in WNW 11.5 mph 11.5 mph 84% 0.00 in 0.0 W/m2
06:23 37.3 °F 32.9 °F 29.91 in West 8.1 mph 8.1 mph 84% 0.00 in 0.0 W/m2
06:28 37.1 °F 33.0 °F 29.92 in West 5.8 mph 5.8 mph 85% 0.00 in 0.0 W/m2
06:33 37.0 °F 32.9 °F 29.92 in West 9.2 mph 9.2 mph 85% 0.00 in 5.0 W/m2
06:38 36.8 °F 32.7 °F 29.92 in WSW 8.1 mph 8.1 mph 85% 0.00 in 9.0 W/m2
06:43 36.8 °F 33.0 °F 29.93 in West 10.4 mph 10.4 mph 86% 0.00 in 12.0 W/m2
06:48 36.7 °F 32.6 °F 29.93 in West 8.1 mph 8.1 mph 85% 0.00 in 18.0 W/m2
06:53 36.5 °F 32.7 °F 29.93 in West 5.8 mph 5.8 mph 86% 0.00 in 28.0 W/m2
06:58 36.5 °F 32.7 °F 29.93 in West 7.0 mph 7.0 mph 86% 0.00 in 33.0 W/m2
07:03 36.5 °F 32.7 °F 29.93 in West 11.5 mph 11.5 mph 86% 0.00 in 37.0 W/m2
07:08 36.4 °F 32.6 °F 29.93 in WNW 10.4 mph 10.4 mph 86% 0.00 in 42.0 W/m2
07:13 36.4 °F 32.6 °F 29.93 in West 8.0 mph 8.0 mph 86% 0.00 in 47.0 W/m2
07:18 36.4 °F 32.6 °F 29.93 in WNW 11.5 mph 11.5 mph 86% 0.00 in 54.0 W/m2
07:23 36.6 °F 32.8 °F 29.93 in WNW 8.1 mph 8.1 mph 86% 0.00 in 63.0 W/m2
07:28 36.6 °F 32.8 °F 29.93 in West 9.2 mph 9.2 mph 86% 0.00 in 72.0 W/m2
07:33 36.5 °F 32.7 °F 29.93 in NW 5.8 mph 5.8 mph 86% 0.00 in 81.0 W/m2
07:38 36.5 °F 32.7 °F 29.94 in WNW 11.5 mph 11.5 mph 86% 0.00 in 79.0 W/m2
07:43 36.4 °F 32.6 °F 29.94 in WNW 12.0 mph 12.0 mph 86% 0.00 in 93.0 W/m2
07:48 36.4 °F 32.6 °F 29.94 in WNW 8.1 mph 8.1 mph 86% 0.00 in 118.0 W/m2
07:53 36.5 °F 32.7 °F 29.95 in NW 8.1 mph 8.1 mph 86% 0.00 in 111.0 W/m2
07:58 36.6 °F 32.8 °F 29.95 in West 8.1 mph 8.1 mph 86% 0.00 in 149.0 W/m2
08:03 36.8 °F 32.7 °F 29.95 in WNW 11.5 mph 11.5 mph 85% 0.00 in 234.0 W/m2
08:08 37.0 °F 32.9 °F 29.95 in NW 11.5 mph 11.5 mph 85% 0.00 in 190.0 W/m2
08:13 37.2 °F 32.8 °F 29.95 in WNW 10.4 mph 10.4 mph 84% 0.00 in 163.0 W/m2
08:18 37.2 °F 32.8 °F 29.95 in West 7.0 mph 7.0 mph 84% 0.00 in 229.0 W/m2
08:23 37.6 °F 33.5 °F 29.95 in NW 6.0 mph 6.0 mph 85% 0.00 in 220.0 W/m2
08:28 37.8 °F 33.4 °F 29.95 in WNW 10.4 mph 10.4 mph 84% 0.00 in 262.0 W/m2
08:33 37.8 °F 32.8 °F 29.96 in WSW 16.1 mph 16.1 mph 82% 0.00 in 202.0 W/m2
08:38 37.9 °F 32.9 °F 29.96 in WNW 5.8 mph 5.8 mph 82% 0.00 in 318.0 W/m2
08:43 38.0 °F 33.0 °F 29.95 in West 10.4 mph 10.4 mph 82% 0.00 in 438.0 W/m2
08:48 38.0 °F 32.7 °F 29.94 in WNW 12.7 mph 12.7 mph 81% 0.00 in 376.0 W/m2
08:53 38.0 °F 32.4 °F 29.94 in WNW 13.0 mph 13.0 mph 80% 0.00 in 153.0 W/m2
08:59 37.8 °F 32.5 °F 29.95 in WNW 13.8 mph 13.8 mph 81% 0.00 in 158.0 W/m2
09:04 37.6 °F 32.3 °F 29.95 in West 14.0 mph 14.0 mph 81% 0.00 in 167.0 W/m2
09:09 37.6 °F 32.0 °F 29.95 in WNW 11.5 mph 11.5 mph 80% 0.00 in 186.0 W/m2
09:14 37.5 °F 31.6 °F 29.96 in NW 12.7 mph 12.7 mph 79% 0.00 in 155.0 W/m2
09:19 37.6 °F 32.0 °F 29.97 in WNW 13.0 mph 13.0 mph 80% 0.00 in 211.0 W/m2
09:24 37.6 °F 32.0 °F 29.97 in WNW 17.3 mph 17.3 mph 80% 0.00 in 202.0 W/m2
09:29 37.7 °F 32.1 °F 29.97 in West 16.1 mph 16.1 mph 80% 0.00 in 123.0 W/m2
09:34 37.3 °F 31.1 °F 29.97 in SW 12.7 mph 12.7 mph 78% 0.00 in 148.0 W/m2
09:39 37.1 °F 30.2 °F 29.96 in West 11.5 mph 11.5 mph 76% 0.00 in 130.0 W/m2
09:44 37.2 °F 30.7 °F 29.96 in West 19.6 mph 19.6 mph 77% 0.00 in 155.0 W/m2
09:49 37.2 °F 30.3 °F 29.96 in WNW 17.3 mph 17.3 mph 76% 0.00 in 174.0 W/m2
09:54 37.2 °F 30.0 °F 29.96 in WSW 10.4 mph 10.4 mph 75% 0.00 in 169.0 W/m2
09:59 37.2 °F 29.7 °F 29.95 in WNW 16.1 mph 16.1 mph 74% 0.00 in 176.0 W/m2
10:04 37.2 °F 30.0 °F 29.95 in WNW 12.7 mph 12.7 mph 75% 0.00 in 155.0 W/m2
10:09 37.3 °F 30.4 °F 29.95 in NW 12.7 mph 12.7 mph 76% 0.00 in 139.0 W/m2
10:14 37.3 °F 31.1 °F 29.95 in West 11.5 mph 11.5 mph 78% 0.00 in 93.0 W/m2
10:19 37.2 °F 30.7 °F 29.95 in WNW 9.2 mph 9.2 mph 77% 0.00 in 104.0 W/m2
10:24 37.0 °F 30.8 °F 29.96 in WNW 11.5 mph 11.5 mph 78% 0.00 in 90.0 W/m2
10:29 36.9 °F 31.0 °F 29.96 in WSW 6.9 mph 6.9 mph 79% 0.00 in 98.0 W/m2
10:34 36.9 °F 31.0 °F 29.96 in West 11.5 mph 11.5 mph 79% 0.00 in 137.0 W/m2
10:39 37.0 °F 31.1 °F 29.96 in WSW 11.5 mph 11.5 mph 79% 0.00 in 65.0 W/m2
10:44 36.9 °F 31.0 °F 29.96 in NW 11.0 mph 11.0 mph 79% 0.00 in 100.0 W/m2
10:49 36.8 °F 30.6 °F 29.96 in WSW 13.8 mph 13.8 mph 78% 0.00 in 135.0 W/m2
10:54 36.6 °F 29.7 °F 29.96 in West 14.0 mph 14.0 mph 76% 0.00 in 137.0 W/m2
10:59 36.7 °F 29.8 °F 29.95 in West 13.8 mph 13.8 mph 76% 0.00 in 137.0 W/m2
11:04 36.6 °F 29.4 °F 29.95 in WSW 13.8 mph 13.8 mph 75% 0.00 in 121.0 W/m2
11:09 36.5 °F 29.3 °F 29.96 in West 17.3 mph 17.3 mph 75% 0.00 in 123.0 W/m2
11:14 36.4 °F 28.9 °F 29.96 in WNW 11.5 mph 11.5 mph 74% 0.00 in 146.0 W/m2
11:19 36.3 °F 27.1 °F 29.96 in West 23.0 mph 23.0 mph 69% 0.00 in 163.0 W/m2
11:24 35.9 °F 23.7 °F 29.96 in WNW 17.3 mph 17.3 mph 61% 0.00 in 163.0 W/m2
11:29 35.6 °F 23.5 °F 29.97 in West 17.3 mph 17.3 mph 61% 0.00 in 243.0 W/m2
11:34 35.7 °F 24.7 °F 29.96 in WNW 16.1 mph 16.1 mph 64% 0.00 in 250.0 W/m2
11:39 35.9 °F 25.3 °F 29.96 in West 19.0 mph 19.0 mph 65% 0.00 in 308.0 W/m2
11:44 36.1 °F 25.8 °F 29.97 in WNW 13.8 mph 13.8 mph 66% 0.00 in 362.0 W/m2
11:49 36.5 °F 25.8 °F 29.97 in NW 17.3 mph 17.3 mph 65% 0.00 in 341.0 W/m2
11:54 36.8 °F 26.5 °F 29.97 in West 19.0 mph 19.0 mph 66% 0.00 in 332.0 W/m2
11:59 36.7 °F 24.5 °F 29.97 in WNW 19.6 mph 19.6 mph 61% 0.00 in 294.0 W/m2
12:04 36.5 °F 23.9 °F 29.97 in West 17.3 mph 17.3 mph 60% 0.00 in 255.0 W/m2
12:09 36.2 °F 23.6 °F 29.97 in West 17.3 mph 17.3 mph 60% 0.00 in 287.0 W/m2
12:14 36.4 °F 25.0 °F 29.97 in WSW 11.5 mph 11.5 mph 63% 0.00 in 385.0 W/m2
12:19 36.7 °F 25.3 °F 29.96 in West 17.3 mph 17.3 mph 63% 0.00 in 367.0 W/m2
12:24 36.9 °F 25.9 °F 29.96 in WNW 17.0 mph 17.0 mph 64% 0.00 in 510.0 W/m2
12:29 37.1 °F 26.0 °F 29.96 in WNW 12.7 mph 12.7 mph 64% 0.00 in 534.0 W/m2
12:34 37.4 °F 26.3 °F 29.96 in NW 11.5 mph 11.5 mph 64% 0.00 in 371.0 W/m2
12:39 37.6 °F 27.3 °F 29.97 in West 13.8 mph 13.8 mph 66% 0.00 in 288.0 W/m2
12:44 37.4 °F 27.8 °F 29.97 in WNW 16.1 mph 16.1 mph 68% 0.00 in 186.0 W/m2
12:49 37.0 °F 27.8 °F 29.97 in WNW 19.6 mph 19.6 mph 69% 0.00 in 202.0 W/m2
12:54 36.9 °F 28.0 °F 29.98 in WNW 13.8 mph 13.8 mph 70% 0.00 in 172.0 W/m2
12:59 36.3 °F 27.1 °F 29.98 in WSW 15.0 mph 15.0 mph 69% 0.00 in 116.0 W/m2
13:04 36.0 °F 27.2 °F 29.98 in West 11.5 mph 11.5 mph 70% 0.00 in 116.0 W/m2
13:09 35.9 °F 27.4 °F 29.98 in WNW 17.3 mph 17.3 mph 71% 0.00 in 207.0 W/m2
13:14 35.7 °F 26.9 °F 29.98 in SSW 20.7 mph 20.7 mph 70% 0.00 in 234.0 W/m2
13:19 35.6 °F 26.4 °F 29.98 in WNW 13.8 mph 13.8 mph 69% 0.00 in 162.0 W/m2
13:24 35.5 °F 25.6 °F 29.99 in WNW 20.7 mph 20.7 mph 67% 0.00 in 176.0 W/m2
13:29 35.4 °F 24.4 °F 29.99 in West 18.4 mph 18.4 mph 64% 0.00 in 214.0 W/m2
13:34 35.1 °F 23.4 °F 29.99 in WSW 21.9 mph 21.9 mph 62% 0.00 in 223.0 W/m2
13:39 34.8 °F 22.7 °F 29.99 in NW 18.4 mph 18.4 mph 61% 0.00 in 202.0 W/m2
13:44 34.4 °F 21.9 °F 30.00 in West 19.6 mph 19.6 mph 60% 0.00 in 220.0 W/m2
13:49 34.4 °F 22.3 °F 30.00 in WNW 18.4 mph 18.4 mph 61% 0.00 in 250.0 W/m2
13:55 34.4 °F 22.7 °F 30.00 in NW 11.5 mph 11.5 mph 62% 0.00 in 230.0 W/m2
14:00 34.3 °F 22.2 °F 30.00 in WNW 18.4 mph 18.4 mph 61% 0.00 in 258.0 W/m2
14:05 34.2 °F 21.7 °F 30.00 in WNW 16.1 mph 16.1 mph 60% 0.00 in 229.0 W/m2
14:10 34.1 °F 20.9 °F 30.00 in WNW 15.0 mph 15.0 mph 58% 0.00 in 188.0 W/m2
14:15 33.9 °F 21.5 °F 30.00 in NW 17.3 mph 17.3 mph 60% 0.00 in 149.0 W/m2
14:20 33.6 °F 21.2 °F 30.00 in WNW 16.1 mph 16.1 mph 60% 0.00 in 141.0 W/m2
14:25 33.3 °F 21.3 °F 30.00 in WNW 18.0 mph 18.0 mph 61% 0.00 in 130.0 W/m2
14:30 33.2 °F 21.2 °F 30.00 in West 16.1 mph 16.1 mph 61% 0.00 in 125.0 W/m2
14:35 33.1 °F 21.1 °F 30.00 in West 20.7 mph 20.7 mph 61% 0.00 in 148.0 W/m2
14:40 33.2 °F 22.0 °F 30.00 in West 17.3 mph 17.3 mph 63% 0.00 in 167.0 W/m2
14:45 33.2 °F 21.2 °F 30.00 in WNW 17.3 mph 17.3 mph 61% 0.00 in 186.0 W/m2
14:50 33.3 °F 22.1 °F 30.01 in WSW 15.0 mph 15.0 mph 63% 0.00 in 190.0 W/m2
14:55 33.4 °F 22.1 °F 30.01 in WNW 15.0 mph 15.0 mph 63% 0.00 in 197.0 W/m2
15:00 33.4 °F 22.1 °F 30.01 in SW 16.1 mph 16.1 mph 63% 0.00 in 200.0 W/m2
15:05 33.6 °F 22.3 °F 30.01 in NW 21.9 mph 21.9 mph 63% 0.00 in 244.0 W/m2
15:10 33.4 °F 20.6 °F 30.01 in NNW 20.7 mph 20.7 mph 59% 0.00 in 271.0 W/m2
15:15 33.3 °F 19.7 °F 30.01 in WNW 19.6 mph 19.6 mph 57% 0.00 in 287.0 W/m2
15:20 33.4 °F 20.2 °F 30.00 in NW 15.0 mph 15.0 mph 58% 0.00 in 251.0 W/m2
15:25 33.4 °F 20.2 °F 30.00 in West 14.0 mph 14.0 mph 58% 0.00 in 239.0 W/m2
15:30 33.3 °F 20.1 °F 30.00 in NW 17.3 mph 17.3 mph 58% 0.00 in 251.0 W/m2
15:35 33.2 °F 20.8 °F 30.00 in WNW 18.4 mph 18.4 mph 60% 0.00 in 239.0 W/m2
15:40 33.0 °F 21.4 °F 30.00 in WNW 15.0 mph 15.0 mph 62% 0.00 in 227.0 W/m2
15:45 32.7 °F 20.7 °F 30.01 in West 18.4 mph 18.4 mph 61% 0.00 in 204.0 W/m2
15:50 32.5 °F 20.5 °F 30.01 in WNW 16.1 mph 16.1 mph 61% 0.00 in 190.0 W/m2
15:55 32.7 °F 21.9 °F 30.01 in WNW 18.4 mph 18.4 mph 64% 0.00 in 167.0 W/m2
16:00 32.3 °F 20.0 °F 30.01 in WSW 18.4 mph 18.4 mph 60% 0.00 in 156.0 W/m2
16:05 32.0 °F 19.7 °F 30.01 in NW 12.0 mph 12.0 mph 60% 0.00 in 163.0 W/m2
16:10 32.0 °F 20.1 °F 30.01 in West 14.0 mph 14.0 mph 61% 0.00 in 142.0 W/m2
16:15 31.9 °F 20.0 °F 30.01 in NW 18.4 mph 18.4 mph 61% 0.00 in 132.0 W/m2
16:20 31.9 °F 19.6 °F 30.02 in NW 15.0 mph 15.0 mph 60% 0.00 in 139.0 W/m2
16:25 31.7 °F 19.0 °F 30.02 in NW 13.8 mph 13.8 mph 59% 0.00 in 120.0 W/m2
16:30 31.6 °F 19.7 °F 30.02 in NW 15.0 mph 15.0 mph 61% 0.00 in 116.0 W/m2
16:35 31.5 °F 19.2 °F 30.03 in West 12.7 mph 12.7 mph 60% 0.00 in 111.0 W/m2
16:40 31.4 °F 19.1 °F 30.03 in NW 16.1 mph 16.1 mph 60% 0.00 in 123.0 W/m2
16:45 31.4 °F 19.5 °F 30.03 in NW 12.7 mph 12.7 mph 61% 0.00 in 134.0 W/m2
16:50 31.3 °F 18.6 °F 30.03 in WNW 11.5 mph 11.5 mph 59% 0.00 in 149.0 W/m2
16:55 31.5 °F 19.6 °F 30.03 in NW 18.4 mph 18.4 mph 61% 0.00 in 199.0 W/m2
17:00 31.4 °F 18.3 °F 30.04 in NW 19.6 mph 19.6 mph 58% 0.00 in 144.0 W/m2
17:05 31.2 °F 18.1 °F 30.04 in WNW 13.8 mph 13.8 mph 58% 0.00 in 311.0 W/m2
17:10 31.6 °F 18.5 °F 30.04 in WNW 11.5 mph 11.5 mph 58% 0.00 in 174.0 W/m2
17:15 31.6 °F 18.5 °F 30.04 in WNW 17.3 mph 17.3 mph 58% 0.00 in 179.0 W/m2
17:20 31.6 °F 17.7 °F 30.05 in NW 18.4 mph 18.4 mph 56% 0.00 in 116.0 W/m2
17:25 31.5 °F 17.6 °F 30.05 in WNW 21.9 mph 21.9 mph 56% 0.00 in 113.0 W/m2
17:30 31.5 °F 18.4 °F 30.05 in WNW 12.0 mph 12.0 mph 58% 0.00 in 113.0 W/m2
17:35 31.4 °F 17.9 °F 30.05 in NW 19.6 mph 19.6 mph 57% 0.00 in 134.0 W/m2
17:40 31.4 °F 17.5 °F 30.05 in WNW 19.6 mph 19.6 mph 56% 0.00 in 151.0 W/m2
17:45 31.5 °F 17.6 °F 30.05 in NW 15.0 mph 15.0 mph 56% 0.00 in 169.0 W/m2
17:50 31.5 °F 17.6 °F 30.05 in NW 15.0 mph 15.0 mph 56% 0.00 in 127.0 W/m2
17:55 31.4 °F 17.1 °F 30.05 in NW 15.0 mph 15.0 mph 55% 0.00 in 91.0 W/m2
18:00 31.2 °F 17.3 °F 30.05 in NW 15.0 mph 15.0 mph 56% 0.00 in 83.0 W/m2
18:05 31.1 °F 16.8 °F 30.05 in WNW 15.0 mph 15.0 mph 55% 0.00 in 83.0 W/m2
18:10 31.0 °F 17.1 °F 30.06 in WNW 12.7 mph 12.7 mph 56% 0.00 in 63.0 W/m2
18:15 30.9 °F 17.0 °F 30.06 in WNW 11.5 mph 11.5 mph 56% 0.00 in 56.0 W/m2
18:20 30.8 °F 16.1 °F 30.06 in WNW 15.0 mph 15.0 mph 54% 0.00 in 47.0 W/m2
18:25 30.7 °F 16.4 °F 30.06 in WNW 16.1 mph 16.1 mph 55% 0.00 in 51.0 W/m2
18:30 30.8 °F 17.3 °F 30.06 in WNW 12.7 mph 12.7 mph 57% 0.00 in 62.0 W/m2
18:35 30.9 °F 16.6 °F 30.06 in WNW 12.7 mph 12.7 mph 55% 0.00 in 67.0 W/m2
18:40 30.8 °F 16.1 °F 30.06 in NW 13.8 mph 13.8 mph 54% 0.00 in 26.0 W/m2
18:45 30.6 °F 16.3 °F 30.06 in NW 16.1 mph 16.1 mph 55% 0.00 in 26.0 W/m2
18:50 30.6 °F 15.9 °F 30.06 in WNW 11.5 mph 11.5 mph 54% 0.00 in 37.0 W/m2
18:55 30.6 °F 16.3 °F 30.07 in NW 11.5 mph 11.5 mph 55% 0.00 in 21.0 W/m2
19:00 30.5 °F 16.2 °F 30.07 in WNW 10.4 mph 10.4 mph 55% 0.00 in 19.0 W/m2
19:05 30.5 °F 16.2 °F 30.07 in NW 9.2 mph 9.2 mph 55% 0.00 in 12.0 W/m2
19:10 30.5 °F 16.7 °F 30.07 in WNW 9.0 mph 9.0 mph 56% 0.00 in 11.0 W/m2
19:15 30.5 °F 16.2 °F 30.08 in WNW 16.1 mph 16.1 mph 55% 0.00 in 7.0 W/m2
19:20 30.6 °F 16.3 °F 30.08 in NW 15.0 mph 15.0 mph 55% 0.00 in 0.0 W/m2
19:25 30.5 °F 15.8 °F 30.07 in NW 11.5 mph 11.5 mph 54% 0.00 in 0.0 W/m2
19:30 30.3 °F 15.6 °F 30.07 in NW 12.7 mph 12.7 mph 54% 0.00 in 0.0 W/m2
19:35 30.3 °F 16.0 °F 30.08 in NW 15.0 mph 15.0 mph 55% 0.00 in 0.0 W/m2
19:40 30.2 °F 16.0 °F 30.08 in NW 12.7 mph 12.7 mph 55% 0.00 in 0.0 W/m2
19:45 30.1 °F 16.3 °F 30.08 in NW 15.0 mph 15.0 mph 56% 0.00 in 0.0 W/m2
19:50 30.0 °F 15.3 °F 30.08 in NNW 12.7 mph 12.7 mph 54% 0.00 in 0.0 W/m2
19:55 29.9 °F 16.1 °F 30.08 in NW 6.9 mph 6.9 mph 56% 0.00 in 0.0 W/m2
20:00 29.8 °F 15.6 °F 30.08 in NW 11.5 mph 11.5 mph 55% 0.00 in 0.0 W/m2
20:05 29.8 °F 15.6 °F 30.08 in NW 10.4 mph 10.4 mph 55% 0.00 in 0.0 W/m2
20:10 29.7 °F 15.9 °F 30.08 in WNW 10.4 mph 10.4 mph 56% 0.00 in 0.0 W/m2
20:15 29.6 °F 15.4 °F 30.09 in NNW 11.5 mph 11.5 mph 55% 0.00 in 0.0 W/m2
20:20 29.5 °F 15.3 °F 30.09 in NW 11.5 mph 11.5 mph 55% 0.00 in 0.0 W/m2
20:25 29.5 °F 15.3 °F 30.09 in NW 11.5 mph 11.5 mph 55% 0.00 in 0.0 W/m2
20:30 29.4 °F 14.8 °F 30.10 in NNW 10.4 mph 10.4 mph 54% 0.00 in 0.0 W/m2
20:35 29.3 °F 15.5 °F 30.10 in WNW 11.5 mph 11.5 mph 56% 0.00 in 0.0 W/m2
20:40 29.2 °F 15.4 °F 30.10 in NW 9.2 mph 9.2 mph 56% 0.00 in 0.0 W/m2
20:45 29.0 °F 15.7 °F 30.10 in NW 8.1 mph 8.1 mph 57% 0.00 in 0.0 W/m2
20:50 28.8 °F 15.5 °F 30.10 in NNW 8.1 mph 8.1 mph 57% 0.00 in 0.0 W/m2
20:55 28.7 °F 15.4 °F 30.11 in NNW 10.4 mph 10.4 mph 57% 0.00 in 0.0 W/m2
21:00 28.7 °F 15.4 °F 30.11 in NNW 6.9 mph 6.9 mph 57% 0.00 in 0.0 W/m2
21:05 28.5 °F 16.0 °F 30.11 in NW 7.0 mph 7.0 mph 59% 0.00 in 0.0 W/m2
21:10 28.5 °F 15.2 °F 30.11 in NNW 11.5 mph 11.5 mph 57% 0.00 in 0.0 W/m2
21:15 28.4 °F 15.9 °F 30.11 in NNW 7.0 mph 7.0 mph 59% 0.00 in 0.0 W/m2
21:20 28.2 °F 15.3 °F 30.11 in NW 9.2 mph 9.2 mph 58% 0.00 in 0.0 W/m2
21:25 28.1 °F 15.6 °F 30.11 in NNW 8.1 mph 8.1 mph 59% 0.00 in 0.0 W/m2
21:30 27.9 °F 15.4 °F 30.12 in WNW 7.0 mph 7.0 mph 59% 0.00 in 0.0 W/m2
21:35 27.6 °F 15.1 °F 30.12 in NW 9.0 mph 9.0 mph 59% 0.00 in 0.0 W/m2
21:40 27.5 °F 15.4 °F 30.12 in NNW 8.1 mph 8.1 mph 60% 0.00 in 0.0 W/m2
21:45 27.3 °F 15.6 °F 30.12 in NNW 6.9 mph 6.9 mph 61% 0.00 in 0.0 W/m2
21:51 27.1 °F 15.4 °F 30.13 in NW 8.1 mph 8.1 mph 61% 0.00 in 0.0 W/m2
21:56 27.0 °F 15.3 °F 30.12 in NW 4.0 mph 4.0 mph 61% 0.00 in 0.0 W/m2
22:01 26.8 °F 15.9 °F 30.12 in NW 5.8 mph 5.8 mph 63% 0.00 in 0.0 W/m2
22:06 26.7 °F 16.1 °F 30.13 in NW 8.1 mph 8.1 mph 64% 0.00 in 0.0 W/m2
22:11 26.5 °F 16.0 °F 30.13 in NW 6.9 mph 6.9 mph 64% 0.00 in 0.0 W/m2
22:16 26.3 °F 16.1 °F 30.13 in NW 5.8 mph 5.8 mph 65% 0.00 in 0.0 W/m2
22:21 26.1 °F 15.9 °F 30.13 in NW 6.9 mph 6.9 mph 65% 0.00 in 0.0 W/m2
22:26 25.9 °F 16.1 °F 30.13 in NW 6.9 mph 6.9 mph 66% 0.00 in 0.0 W/m2
22:31 25.7 °F 15.9 °F 30.13 in WNW 6.9 mph 6.9 mph 66% 0.00 in 0.0 W/m2
22:36 25.6 °F 15.8 °F 30.13 in Calm     66% 0.00 in 0.0 W/m2
22:41 25.4 °F 16.0 °F 30.13 in NW 5.8 mph 5.8 mph 67% 0.00 in 0.0 W/m2
22:46 25.3 °F 15.9 °F 30.13 in NW 6.9 mph 6.9 mph 67% 0.00 in 0.0 W/m2
22:51 25.2 °F 15.8 °F 30.14 in NW 6.9 mph 6.9 mph 67% 0.00 in 0.0 W/m2
22:56 25.1 °F 15.7 °F 30.14 in NW 5.0 mph 5.0 mph 67% 0.00 in 0.0 W/m2
23:01 25.0 °F 15.2 °F 30.14 in Calm     66% 0.00 in 0.0 W/m2
23:06 24.9 °F 15.1 °F 30.14 in Calm     66% 0.00 in 0.0 W/m2
23:11 24.8 °F 15.4 °F 30.14 in Calm     67% 0.00 in 0.0 W/m2
23:16 24.6 °F 15.2 °F 30.14 in Calm     67% 0.00 in 0.0 W/m2
23:21 24.5 °F 15.4 °F 30.14 in NW 3.5 mph 3.5 mph 68% 0.00 in 0.0 W/m2
23:26 24.3 °F 15.6 °F 30.14 in NW 4.0 mph 4.0 mph 69% 0.00 in 0.0 W/m2
23:31 24.2 °F 15.5 °F 30.14 in NW 8.1 mph 8.1 mph 69% 0.00 in 0.0 W/m2
23:36 24.2 °F 15.5 °F 30.14 in NW 9.2 mph 9.2 mph 69% 0.00 in 0.0 W/m2
23:41 24.3 °F 15.3 °F 30.14 in NNW 6.9 mph 6.9 mph 68% 0.00 in 0.0 W/m2
23:46 24.2 °F 15.2 °F 30.14 in NW 4.6 mph 4.6 mph 68% 0.00 in 0.0 W/m2
23:51 24.2 °F 15.5 °F 30.14 in WNW 6.9 mph 6.9 mph 69% 0.00 in 0.0 W/m2
23:56 24.1 °F 15.4 °F 30.14 in NW 5.8 mph 5.8 mph 69% 0.00 in 0.0 W/m2
Bourbonnais, Illinois, USA
Compliments of Weather Underground - 4 mb